Portada
METAR-TAF:

METAR-TAF

Aeropuertos :

Locarno, Suiza

latitud: 46-09-55N, longitud: 8-52-40E, altitud: 198 m

Observación

El informe se hizo hace 30 minutos, a las 01:50 UTC
Viento calma
Temperatura 2°C
Humedad 93%
Presión 1012 hPa
Visibilidad 10 km o más

METAR: LSZL 030150Z AUTO 00000KT 9999NDV NCD 02/01 Q1012 RMK

Hora: 04:20 (02:20 UTC)

Pronóstico

El informe se hizo hace 8 horas y 55 minutos, a las 17:25 UTC
Pronóstico válido del 02 a las 18 UTC al 03 a las 03 UTC
Viento 4 kt del oeste-suroeste
Visibilidad 10 km o más
sin nubes por debajo de 1500 m y sin presencia de cumulonimbus.
Probabilidad 30%
del 02 a las 20 UTC al 02 a las 23 UTC
Visibilidad 10 km o más
Escasas nubes a una altura de 6000 ft

TAF: LSZL 021725Z 0218/0303 24004KT CAVOK PROB30 0220/0223 9999 FEW060

Observaciones y pronósticos meteorológicos de más de 4000 aeropuertos (mensajes METAR y TAF).

Los puntos amarillos y rojos representan las estaciones disponibles.

Ponga el ratón en el punto deseado para ver el nombre de la estación.

Haga clic para ver las observaciones y los pronósticos meteorológicos.

Para cambiar el mapa : haga clic en los botones verdes con una cruz de color negro para hacer un zoom, en el botón verde con un guión para alejar o en las flechas verdes para mapas adyacentes.


METAR-TAF: